Americus, GA

11:45 AM EDT on September 02, 2015 (GMT -0400)
Souther | | Change Station
CLOSE
Current Station
Airport
Location: Americus,
Elevation: 469 ft
Nearby Weather Stations

Elev 469 ft 32.11 °N, 84.19 °W | Updated 10 minutes ago

Clear
Clear
82 °F
Feels Like 88 °F
N
5
Wind Variable Wind from East

Today
High -- | Low -- °F
--% Chance of Precip.
Yesterday
High -- | Low -- °F
Precip. -- in
7:12 AM 8:00 PM
Waning Gibbous, 79% visible
Pressure 30.13 in
Visibility 10.0 miles
Clouds Scattered Clouds 2800 ft
Mostly Cloudy 7000 ft
Heat Index 88 °F
Dew Point 73 °F
Humidity 74%
Rainfall 0.00 in
Snow Depth Not available.
UV 5 out of 12
Pollen 8.00 out of 12
Air Quality Not available.
Flu Activity Not available.
METAR KACJ 021535Z AUTO 09004KT 10SM SCT028 BKN070 28/23 A3013 RMK AO2
Pressure 30.13 in
Visibility 10.0 miles
Clouds Scattered Clouds 2800 ft
Mostly Cloudy 7000 ft
Heat Index 88 °F
Dew Point 73 °F
Humidity 74%
Rainfall 0.00 in
Snow Depth Not available.
UV 5 out of 12
Pollen 8.00 out of 12
Air Quality Not available.
Flu Activity Not available.
METAR KACJ 021535Z AUTO 09004KT 10SM SCT028 BKN070 28/23 A3013 RMK AO2

10-Day Weather Forecast

×

Almanac

Astronomy

Sep. 02, 2015 Rise Set
Actual Time
Civil Twilight
Nautical Twilight
Astronomical Twilight
Moon
Length of Visible Light
Length of Day
Tomorrow will be .
, % of the Moon is Illuminated

Today's Extremes

State Highs State Lows

Community

WunderPhotos

Upload Photos

1,851,774 photos uploaded!

WunderBlogs® & News

Nearby

Air Quality

  Air Quality AQ Index Pollutant
Not available.

Snow Depth

Station Depth Elevation

Earthquake Activity

City Distance Mag. Time & Date
Minimum magnitude displayed is 2.5.

Coastal Water Temperatures

Place Temperature

Stations

Nearby Weather Stations

Station Location Temp. Windchill Dew Point Humidity Wind Precip. Elev Updated Type